Ultra Panther — 3ESA3 — position and weather

sailwx.info

Track history (hours):
 
Tides and Currents Weather Stations Pressure Air Temp Water Temp Dewpoint Dewpoint Depression Visibility Wind Speed Wind Dir Waves Ship Positions

Ultra Panther

Last reported at 2017-Sep-29 01:28 UTC. Time now 2017-Oct-17 22:35 UTC.
Position N 36°52' W 075°52'.
Warning: this ship's position is 18 days out of date.

Length 229 m; draft 13.9 m.

Type: Cargo ship. MMSI: 370235000.

Date/timePositionNaut miles runAvg speedWind from/ knotsBaromVisibWave heightAir tempDewpointWater temp
2017-Sep-29 01:28N 36°52' W 075°52'510.7
2017-Sep-29 00:58N 36°56' W 075°57'510.4
2017-Sep-29 00:30N 36°60' W 076°01'5 9.9
2017-Sep-29 00:00N 37°03' W 076°05'53 8.5
2017-Sep-28 17:43N 37°57' W 076°10'211.0
2017-Sep-28 17:29N 37°59' W 076°11'510.4
2017-Sep-28 17:00N 38°04' W 076°13'510.8
2017-Sep-28 16:30N 38°09' W 076°14'610.7
2017-Sep-28 15:58N 38°15' W 076°16'510.4
2017-Sep-28 15:29N 38°19' W 076°18'510.4
2017-Sep-28 15:00N 38°24' W 076°21'510.4
2017-Sep-28 14:30N 38°29' W 076°23'510.0
2017-Sep-28 14:00N 38°33' W 076°26'5 9.7
2017-Sep-28 13:30N 38°38' W 076°25'5 9.8
2017-Sep-28 13:00N 38°43' W 076°26'510.0
2017-Sep-28 12:30N 38°48' W 076°25'5 9.6
2017-Sep-28 12:00N 38°52' W 076°24'4 7.0
2017-Sep-28 11:30N 38°56' W 076°24'0 0.9
2017-Sep-28 10:58N 38°56' W 076°24'0 0.0
2017-Sep-28 10:28N 38°56' W 076°24'0 0.0
2017-Sep-28 09:58N 38°56' W 076°24'0 0.0
2017-Sep-28 09:28N 38°56' W 076°24'0 0.2
2017-Sep-28 08:58N 38°56' W 076°23'0 0.4
2017-Sep-28 08:28N 38°56' W 076°24'0 0.1
2017-Sep-28 07:58N 38°56' W 076°24'0 0.1
2017-Sep-28 07:28N 38°56' W 076°24'0 0.0
2017-Sep-28 06:58N 38°56' W 076°24'0 0.0
2017-Sep-28 06:28N 38°56' W 076°24'0 0.0
2017-Sep-28 05:58N 38°56' W 076°24'0 0.0
2017-Sep-28 05:28N 38°56' W 076°24'0 0.0
2017-Sep-28 04:58N 38°56' W 076°24'0 0.0
2017-Sep-28 04:28N 38°56' W 076°24'0 0.0
2017-Sep-28 03:58N 38°56' W 076°24'0 0.0
2017-Sep-28 03:28N 38°56' W 076°24'0 0.0
2017-Sep-28 02:58N 38°56' W 076°24'0 0.0
2017-Sep-28 02:28N 38°56' W 076°24'0 0.1
2017-Sep-28 01:58N 38°56' W 076°24'0 0.3
2017-Sep-28 01:28N 38°56' W 076°24'0 0.2
2017-Sep-28 00:58N 38°56' W 076°24'0 0.1
2017-Sep-28 00:28N 38°56' W 076°24'0 0.0
2017-Sep-27 23:58N 38°56' W 076°24'0 0.0
2017-Sep-27 23:28N 38°56' W 076°24'0 0.0
2017-Sep-27 22:58N 38°56' W 076°24'0 0.0
2017-Sep-27 22:28N 38°56' W 076°24'0 0.0
2017-Sep-27 21:58N 38°56' W 076°24'0 0.0
2017-Sep-27 21:28N 38°56' W 076°24'0 0.0
2017-Sep-27 20:58N 38°56' W 076°24'0 0.0
2017-Sep-27 20:28N 38°56' W 076°24'0 0.0
2017-Sep-27 19:58N 38°56' W 076°24'0 0.0
2017-Sep-27 19:28N 38°56' W 076°24'0 0.0
2017-Sep-27 18:58N 38°56' W 076°24'0 0.0
2017-Sep-27 18:28N 38°56' W 076°24'0 0.0
2017-Sep-27 17:58N 38°56' W 076°24'0 0.0
2017-Sep-27 17:28N 38°56' W 076°24'0 0.0
2017-Sep-27 16:58N 38°56' W 076°24'0 0.0
2017-Sep-27 16:28N 38°56' W 076°24'0 0.0
2017-Sep-27 15:58N 38°56' W 076°24'0 0.0
2017-Sep-27 15:28N 38°56' W 076°24'0 0.0
2017-Sep-27 14:58N 38°56' W 076°24'0 0.0
2017-Sep-27 14:28N 38°56' W 076°24'0 0.0
2017-Sep-27 13:58N 38°56' W 076°24'0 0.0
2017-Sep-27 13:28N 38°56' W 076°24'0 0.0
2017-Sep-27 12:58N 38°56' W 076°24'0 0.0
2017-Sep-27 12:28N 38°56' W 076°24'0 0.0
2017-Sep-27 11:58N 38°56' W 076°24'0 0.0
2017-Sep-27 11:28N 38°56' W 076°24'0 0.0
2017-Sep-27 10:58N 38°56' W 076°24'0 0.0
2017-Sep-27 10:28N 38°56' W 076°24'0 0.0
2017-Sep-27 09:58N 38°56' W 076°24'0 0.0
2017-Sep-27 09:28N 38°56' W 076°24'0 0.0
2017-Sep-27 08:58N 38°56' W 076°24'0 0.0
2017-Sep-27 08:28N 38°56' W 076°24'0 0.0
2017-Sep-27 07:58N 38°56' W 076°24'0 0.0
2017-Sep-27 07:28N 38°56' W 076°24'0 0.0
2017-Sep-27 06:58N 38°56' W 076°24'0 0.0
2017-Sep-27 06:28N 38°56' W 076°24'0 0.1
2017-Sep-27 05:58N 38°56' W 076°24'0 0.1
2017-Sep-27 05:28N 38°56' W 076°24'0 0.2
2017-Sep-27 04:58N 38°56' W 076°24'0 0.2
2017-Sep-27 04:28N 38°56' W 076°24'0 0.1
2017-Sep-27 03:55N 38°56' W 076°24'0 0.0
2017-Sep-27 03:28N 38°56' W 076°24'0 0.0
2017-Sep-27 02:58N 38°56' W 076°24'0 0.0
2017-Sep-27 02:28N 38°56' W 076°24'0 0.0
2017-Sep-27 01:58N 38°56' W 076°24'0 0.0
2017-Sep-27 01:28N 38°56' W 076°24'0 0.2
2017-Sep-27 00:58N 38°56' W 076°24'0 0.2
2017-Sep-27 00:28N 38°56' W 076°24'0 0.1
2017-Sep-26 23:58N 38°56' W 076°24'0 0.0
2017-Sep-26 23:28N 38°56' W 076°24'0 0.0
2017-Sep-26 22:58N 38°56' W 076°24'0 0.1
2017-Sep-26 22:28N 38°56' W 076°24'0 0.0
2017-Sep-26 21:58N 38°56' W 076°24'0 0.0
2017-Sep-26 21:28N 38°56' W 076°24'0 0.0
2017-Sep-26 20:58N 38°56' W 076°24'0 0.0
2017-Sep-26 20:28N 38°56' W 076°24'0 0.0
2017-Sep-26 19:58N 38°56' W 076°24'0 0.0
2017-Sep-26 19:28N 38°56' W 076°24'0 0.0
2017-Sep-26 18:58N 38°56' W 076°24'0 0.0
2017-Sep-26 18:28N 38°56' W 076°24'0 0.0
2017-Sep-26 17:58N 38°56' W 076°24'0 0.2
2017-Sep-26 17:28N 38°56' W 076°24'0 0.3
2017-Sep-26 16:58N 38°56' W 076°24'0 0.1
2017-Sep-26 16:28N 38°56' W 076°24'0 0.1
2017-Sep-26 15:58N 38°56' W 076°24'0 0.1
2017-Sep-26 15:28N 38°56' W 076°24'0 0.2
2017-Sep-26 14:58N 38°56' W 076°23'0 0.2
2017-Sep-26 14:30N 38°56' W 076°24'1 1.4
2017-Sep-26 14:00N 38°57' W 076°23'3 6.2
2017-Sep-26 13:30N 38°60' W 076°23'4 7.8
2017-Sep-26 13:00N 39°04' W 076°24'4 8.3
2017-Sep-26 12:30N 39°08' W 076°24'4 8.1
2017-Sep-26 12:01N 39°11' W 076°27'4 7.2
2017-Sep-26 11:30N 39°13' W 076°31'3 6.2
2017-Sep-26 11:00N 39°15' W 076°34'0 0.6
2017-Sep-26 10:30N 39°15' W 076°34'0 0.0
2017-Sep-26 09:58N 39°15' W 076°34'0 0.0
2017-Sep-26 09:28N 39°15' W 076°34'0 0.0
2017-Sep-26 08:58N 39°15' W 076°34'0 0.0
2017-Sep-26 08:28N 39°15' W 076°34'0 0.0
2017-Sep-26 07:58N 39°15' W 076°34'0 0.0
2017-Sep-26 07:28N 39°15' W 076°34'0 0.0
2017-Sep-26 06:58N 39°15' W 076°34'0 0.0
2017-Sep-26 06:28N 39°15' W 076°34'0 0.0
2017-Sep-26 05:58N 39°15' W 076°34'0 0.0
2017-Sep-26 05:28N 39°15' W 076°34'0 0.0
2017-Sep-26 04:58N 39°15' W 076°34'0 0.0
2017-Sep-26 04:28N 39°15' W 076°34'0 0.0
2017-Sep-26 03:58N 39°15' W 076°34'0 0.0
2017-Sep-26 03:28N 39°15' W 076°34'0 0.0
2017-Sep-26 02:58N 39°15' W 076°34'0 0.0
2017-Sep-26 02:28N 39°15' W 076°34'0 0.0
2017-Sep-26 01:58N 39°15' W 076°34'0 0.0
2017-Sep-26 01:28N 39°15' W 076°34'0 0.0
2017-Sep-26 00:58N 39°15' W 076°34'0 0.0
2017-Sep-26 00:28N 39°15' W 076°34'0 0.0
2017-Sep-25 23:58N 39°15' W 076°34'0 0.0
2017-Sep-25 23:28N 39°15' W 076°34'0 0.0
2017-Sep-25 22:58N 39°15' W 076°34'0 0.0
2017-Sep-25 22:28N 39°15' W 076°34'0 0.0
2017-Sep-25 21:58N 39°15' W 076°34'0 0.0
2017-Sep-25 21:28N 39°15' W 076°34'0 0.0
2017-Sep-25 20:58N 39°15' W 076°34'0 0.0
2017-Sep-25 20:28N 39°15' W 076°34'0 0.0
2017-Sep-25 19:58N 39°15' W 076°34'0 0.0
2017-Sep-25 19:28N 39°15' W 076°34'0 0.0
2017-Sep-25 18:58N 39°15' W 076°34'0 0.0
2017-Sep-25 18:28N 39°15' W 076°34'0 0.0
2017-Sep-25 17:58N 39°15' W 076°34'0 0.0
2017-Sep-25 17:28N 39°15' W 076°34'0 0.0
2017-Sep-25 16:58N 39°15' W 076°34'0 0.0
2017-Sep-25 16:28N 39°15' W 076°34'0 0.0
2017-Sep-25 15:58N 39°15' W 076°34'0 0.8
2017-Sep-25 15:31N 39°15' W 076°34'2 3.3
2017-Sep-25 15:00N 39°14' W 076°32'3 6.6
2017-Sep-25 14:30N 39°12' W 076°29'5 9.4
2017-Sep-25 14:00N 39°09' W 076°24'5 9.6
2017-Sep-25 13:31N 39°04' W 076°24'4 8.8
2017-Sep-25 13:00N 38°60' W 076°23'3 6.6
2017-Sep-25 12:30N 38°56' W 076°24'0 0.6
2017-Sep-25 12:00N 38°56' W 076°24'0 0.3
2017-Sep-25 11:30N 38°56' W 076°24'0 0.2
2017-Sep-25 11:00N 38°56' W 076°24'0 0.1
2017-Sep-25 10:30N 38°56' W 076°24'0 0.0
2017-Sep-25 10:00N 38°56' W 076°24'0 0.0
2017-Sep-25 09:30N 38°56' W 076°24'0 0.0
2017-Sep-25 09:00N 38°56' W 076°24'0 0.0
2017-Sep-25 08:30N 38°56' W 076°24'0 0.0
2017-Sep-25 08:00N 38°56' W 076°24'0 0.0
2017-Sep-25 07:30N 38°56' W 076°24'0 0.0
2017-Sep-25 07:00N 38°56' W 076°24'0 0.0
2017-Sep-25 06:30N 38°56' W 076°24'0 0.0
2017-Sep-25 06:00N 38°56' W 076°24'0 0.0
2017-Sep-25 05:30N 38°56' W 076°24'0 0.1
2017-Sep-25 05:00N 38°56' W 076°24'0 0.2
2017-Sep-25 04:30N 38°56' W 076°24'0 0.2
2017-Sep-25 04:00N 38°56' W 076°24'0 0.1
2017-Sep-25 03:30N 38°56' W 076°24'0 0.1
2017-Sep-25 03:00N 38°56' W 076°24'0 0.0
2017-Sep-25 02:30N 38°56' W 076°24'0 0.0
2017-Sep-25 02:00N 38°56' W 076°24'0 0.0
2017-Sep-25 01:30N 38°56' W 076°24'0 0.0
2017-Sep-25 01:00N 38°56' W 076°24'0 0.0
2017-Sep-25 00:30N 38°56' W 076°24'0 0.0
2017-Sep-25 00:00N 38°56' W 076°24'0 0.2
2017-Sep-24 23:30N 38°56' W 076°24'0 0.3
2017-Sep-24 23:00N 38°56' W 076°24'0 0.0
2017-Sep-24 22:30N 38°56' W 076°24'0 0.1
2017-Sep-24 22:00N 38°56' W 076°24'0 0.0
2017-Sep-24 21:30N 38°56' W 076°24'0 0.0
2017-Sep-24 21:00N 38°56' W 076°24'0 0.0
2017-Sep-24 20:30N 38°56' W 076°24'0 0.0
2017-Sep-24 20:00N 38°56' W 076°24'0 0.0
2017-Sep-24 19:30N 38°56' W 076°24'0 0.0
2017-Sep-24 19:00N 38°56' W 076°24'0 0.0
2017-Sep-24 18:30N 38°56' W 076°24'0 0.0
2017-Sep-24 18:00N 38°56' W 076°24'0 0.0
2017-Sep-24 17:30N 38°56' W 076°24'0 0.0
2017-Sep-24 17:00N 38°56' W 076°24'0 0.0
2017-Sep-24 16:30N 38°56' W 076°24'0 0.0
2017-Sep-24 16:00N 38°56' W 076°24'0 0.1
2017-Sep-24 15:30N 38°56' W 076°24'0 0.3
2017-Sep-24 15:00N 38°56' W 076°24'0 0.2
2017-Sep-24 14:30N 38°56' W 076°24'0 0.1
2017-Sep-24 14:00N 38°56' W 076°24'0 0.0
2017-Sep-24 13:30N 38°56' W 076°24'0 0.0
2017-Sep-24 13:00N 38°56' W 076°24'0 0.0
2017-Sep-24 12:30N 38°56' W 076°24'0 0.1
2017-Sep-24 12:00N 38°56' W 076°24'0 0.1
2017-Sep-24 11:30N 38°56' W 076°24'0 0.2
2017-Sep-24 11:00N 38°56' W 076°24'0 0.2
2017-Sep-24 10:30N 38°56' W 076°24'0 0.0
2017-Sep-24 10:00N 38°56' W 076°24'0 0.1
2017-Sep-24 09:30N 38°56' W 076°24'0 0.0
2017-Sep-24 09:00N 38°56' W 076°24'0 0.0
2017-Sep-24 08:30N 38°56' W 076°24'0 0.0
2017-Sep-24 08:00N 38°56' W 076°24'0 0.0
2017-Sep-24 07:30N 38°56' W 076°24'0 0.0
2017-Sep-24 07:00N 38°56' W 076°24'0 0.0
2017-Sep-24 06:30N 38°56' W 076°24'0 0.0
2017-Sep-24 06:00N 38°56' W 076°24'0 0.0
2017-Sep-24 05:30N 38°56' W 076°24'0 0.0
2017-Sep-24 05:00N 38°56' W 076°24'0 0.0
2017-Sep-24 04:30N 38°56' W 076°24'0 0.1
2017-Sep-24 04:00N 38°56' W 076°24'0 0.2
2017-Sep-24 03:30N 38°56' W 076°24'0 0.1
2017-Sep-24 03:00N 38°56' W 076°24'0 0.1
2017-Sep-24 02:30N 38°56' W 076°24'0 0.1
2017-Sep-24 02:00N 38°56' W 076°24'0 0.0
2017-Sep-24 01:30N 38°56' W 076°24'0 0.0
2017-Sep-24 01:00N 38°56' W 076°24'0 0.0
2017-Sep-24 00:30N 38°56' W 076°24'0 0.0
2017-Sep-24 00:00N 38°56' W 076°24'0 0.0
2017-Sep-23 23:30N 38°56' W 076°24'0 0.1
2017-Sep-23 23:00N 38°56' W 076°24'0 0.3
2017-Sep-23 22:30N 38°56' W 076°24'0 0.2
2017-Sep-23 22:00N 38°56' W 076°24'0 0.1
2017-Sep-23 21:30N 38°56' W 076°24'0 0.0
2017-Sep-23 21:00N 38°56' W 076°24'0 0.0
2017-Sep-23 20:30N 38°56' W 076°24'0 0.0
2017-Sep-23 20:00N 38°56' W 076°24'0 0.0
2017-Sep-22 02:00N 38°56' W 076°24'0 0.1
2017-Sep-22 01:30N 38°56' W 076°24'0 0.1
2017-Sep-22 01:00N 38°56' W 076°24'0 0.0
2017-Sep-22 00:30N 38°56' W 076°24'0 0.0
2017-Sep-22 00:00N 38°56' W 076°24'0 0.0
2017-Sep-21 23:30N 38°56' W 076°24'0 0.0
2017-Sep-21 23:00N 38°56' W 076°24'0 0.0
2017-Sep-21 22:30N 38°56' W 076°24'0 0.1
2017-Sep-21 22:00N 38°56' W 076°24'0 0.2
2017-Sep-21 21:27N 38°56' W 076°24'0 0.2
2017-Sep-21 21:00N 38°56' W 076°24'0 0.1
2017-Sep-21 20:30N 38°56' W 076°24'0 0.1
2017-Sep-21 20:00N 38°56' W 076°24'0 0.1
2017-Sep-21 19:30N 38°56' W 076°24'0 0.0
2017-Sep-21 19:00N 38°56' W 076°24'0 0.0
2017-Sep-21 18:30N 38°56' W 076°24'0 0.0
2017-Sep-21 18:00N 38°56' W 076°24'0 0.0
2017-Sep-21 17:30N 38°56' W 076°24'0 0.0
2017-Sep-21 17:00N 38°56' W 076°24'0 0.0
2017-Sep-21 16:30N 38°56' W 076°24'0 0.0
2017-Sep-21 15:57N 38°56' W 076°24'0 0.0
2017-Sep-21 15:30N 38°56' W 076°24'0 0.0
2017-Sep-21 15:00N 38°56' W 076°24'0 0.0
2017-Sep-21 14:30N 38°56' W 076°24'0 0.1
2017-Sep-21 14:00N 38°56' W 076°24'0 0.3
2017-Sep-21 13:30N 38°56' W 076°24'0 0.1
2017-Sep-21 13:00N 38°56' W 076°24'0 0.0
2017-Sep-21 12:30N 38°56' W 076°24'0 0.0
2017-Sep-21 12:00N 38°56' W 076°24'0 0.0
2017-Sep-21 11:30N 38°56' W 076°24'0 0.0
2017-Sep-21 11:00N 38°56' W 076°24'0 0.0
2017-Sep-21 10:30N 38°56' W 076°24'0 0.0
2017-Sep-21 10:00N 38°56' W 076°24'0 0.0
2017-Sep-21 09:30N 38°56' W 076°24'0 0.1
2017-Sep-21 09:00N 38°56' W 076°24'0 0.3
2017-Sep-21 08:30N 38°56' W 076°24'0 0.2
2017-Sep-21 08:00N 38°56' W 076°24'0 0.1
2017-Sep-21 07:30N 38°56' W 076°24'0 0.0
2017-Sep-21 07:00N 38°56' W 076°24'0 0.0
2017-Sep-21 06:30N 38°56' W 076°24'0 0.0
2017-Sep-21 06:00N 38°56' W 076°24'0 0.0
2017-Sep-21 05:30N 38°56' W 076°24'0 0.0
2017-Sep-21 04:59N 38°56' W 076°24'0 0.0
2017-Sep-21 04:30N 38°56' W 076°24'0 0.0
2017-Sep-21 04:00N 38°56' W 076°24'0 0.0
2017-Sep-21 03:30N 38°56' W 076°24'0 0.0
2017-Sep-21 02:59N 38°56' W 076°24'0 0.0
2017-Sep-21 02:30N 38°56' W 076°24'0 0.1
2017-Sep-21 02:00N 38°56' W 076°24'0 0.3
2017-Sep-21 01:30N 38°56' W 076°24'0 0.2
2017-Sep-21 01:00N 38°56' W 076°24'0 0.0
2017-Sep-21 00:30N 38°56' W 076°24'0 0.0
2017-Sep-21 00:00N 38°56' W 076°24'0 0.0
2017-Sep-20 23:30N 38°56' W 076°24'0 0.0
2017-Sep-20 23:00N 38°56' W 076°24'0 0.0
2017-Sep-20 22:30N 38°56' W 076°24'0 0.0
2017-Sep-20 21:59N 38°56' W 076°24'0 0.0
2017-Sep-20 21:29N 38°56' W 076°24'0 0.0
2017-Sep-20 20:59N 38°56' W 076°24'0 0.0
2017-Sep-20 20:29N 38°56' W 076°24'0 0.1
2017-Sep-20 19:59N 38°56' W 076°24'0 0.3
2017-Sep-20 19:29N 38°56' W 076°24'0 0.2
2017-Sep-20 18:59N 38°56' W 076°24'0 0.1
2017-Sep-20 18:29N 38°56' W 076°24'0 0.0
2017-Sep-20 18:00N 38°56' W 076°24'0 0.0
2017-Sep-20 17:29N 38°56' W 076°24'0 0.0
2017-Sep-20 16:59N 38°56' W 076°24'0 0.0
2017-Sep-20 16:29N 38°56' W 076°24'0 0.0
2017-Sep-20 15:59N 38°56' W 076°24'0 0.0
2017-Sep-20 15:29N 38°56' W 076°24'0 0.0
2017-Sep-20 14:59N 38°56' W 076°24'0 0.1
2017-Sep-20 13:59N 38°56' W 076°24'0 0.3
2017-Sep-20 13:29N 38°56' W 076°24'0 0.1
2017-Sep-20 12:59N 38°56' W 076°24'0 0.0
2017-Sep-20 12:29N 38°56' W 076°24'0 0.0
2017-Sep-20 11:59N 38°56' W 076°24'0 0.0
2017-Sep-20 11:29N 38°56' W 076°24'0 0.0
2017-Sep-20 10:59N 38°56' W 076°24'0 0.0
2017-Sep-20 10:29N 38°56' W 076°24'0 0.0
2017-Sep-20 09:59N 38°56' W 076°24'0 0.0
2017-Sep-20 09:29N 38°56' W 076°24'0 0.0
2017-Sep-20 08:59N 38°56' W 076°24'0 0.0
2017-Sep-20 08:29N 38°56' W 076°24'0 0.1
2017-Sep-20 07:59N 38°56' W 076°24'0 0.3
2017-Sep-20 07:29N 38°56' W 076°24'0 0.3
2017-Sep-20 06:59N 38°56' W 076°24'0 0.1
2017-Sep-20 06:30N 38°56' W 076°24'0 0.0
2017-Sep-20 05:59N 38°56' W 076°24'0 0.0
2017-Sep-20 05:30N 38°56' W 076°24'0 0.0
2017-Sep-20 04:59N 38°56' W 076°24'0 0.0
2017-Sep-20 04:29N 38°56' W 076°24'0 0.0
2017-Sep-20 04:00N 38°56' W 076°24'0 0.0
2017-Sep-20 03:29N 38°56' W 076°24'0 0.0
2017-Sep-20 03:00N 38°56' W 076°24'0 0.0
2017-Sep-20 02:29N 38°56' W 076°24'0 0.0
2017-Sep-20 01:59N 38°56' W 076°24'0 0.3
2017-Sep-20 01:30N 38°56' W 076°24'0 0.2
2017-Sep-20 01:00N 38°56' W 076°24'0 0.0
2017-Sep-20 00:30N 38°56' W 076°24'0 0.0
2017-Sep-19 23:58N 38°56' W 076°24'0 0.1
2017-Sep-19 23:28N 38°56' W 076°24'0 0.0
2017-Sep-19 22:58N 38°56' W 076°24'0 0.1
2017-Sep-19 22:28N 38°56' W 076°24'0 0.1
2017-Sep-19 21:58N 38°56' W 076°24'0 0.1
2017-Sep-19 21:28N 38°56' W 076°24'0 0.2
2017-Sep-19 20:58N 38°56' W 076°24'0 0.3
2017-Sep-19 20:28N 38°56' W 076°24'0 0.2
2017-Sep-19 19:58N 38°56' W 076°24'0 0.0
2017-Sep-19 19:28N 38°56' W 076°24'0 0.1
2017-Sep-19 18:58N 38°56' W 076°24'0 0.0
2017-Sep-19 18:28N 38°56' W 076°24'0 0.0
2017-Sep-19 17:58N 38°56' W 076°24'0 0.0
2017-Sep-19 17:28N 38°56' W 076°24'0 0.0
2017-Sep-19 16:58N 38°56' W 076°24'0 0.0
2017-Sep-19 16:28N 38°56' W 076°24'0 0.1
2017-Sep-19 15:58N 38°56' W 076°24'0 0.0
2017-Sep-19 15:28N 38°56' W 076°24'0 0.0
2017-Sep-19 14:58N 38°56' W 076°24'0 0.0
2017-Sep-19 14:28N 38°56' W 076°24'0 0.0
2017-Sep-19 13:58N 38°56' W 076°24'0 0.0
2017-Sep-19 13:28N 38°56' W 076°24'0 0.0
2017-Sep-19 12:58N 38°56' W 076°24'0 0.0
2017-Sep-19 12:28N 38°56' W 076°24'0 0.0
2017-Sep-19 11:58N 38°56' W 076°24'0 0.0
2017-Sep-19 11:28N 38°56' W 076°24'0 0.0
2017-Sep-19 10:58N 38°56' W 076°24'0 0.1
2017-Sep-19 10:28N 38°56' W 076°24'0 0.2
2017-Sep-19 09:58N 38°56' W 076°24'0 0.1
2017-Sep-19 09:28N 38°56' W 076°24'0 0.0
2017-Sep-19 08:58N 38°56' W 076°24'0 0.0
2017-Sep-19 08:28N 38°56' W 076°24'0 0.1
2017-Sep-19 07:58N 38°56' W 076°24'0 0.2
2017-Sep-19 07:28N 38°56' W 076°24'0 0.1
2017-Sep-19 06:58N 38°56' W 076°24'0 0.0
2017-Sep-19 06:28N 38°56' W 076°24'0 0.0
2017-Sep-19 05:58N 38°56' W 076°24'0 0.0
2017-Sep-19 05:28N 38°56' W 076°24'0 0.0
2017-Sep-19 04:58N 38°56' W 076°24'0 0.0
2017-Sep-19 04:28N 38°56' W 076°24'0 0.0
2017-Sep-19 03:58N 38°56' W 076°24'0 0.0
2017-Sep-19 03:28N 38°56' W 076°24'0 0.0
2017-Sep-19 02:58N 38°56' W 076°24'0 0.0
2017-Sep-19 02:28N 38°56' W 076°24'0 0.0
2017-Sep-19 01:58N 38°56' W 076°24'0 0.0
2017-Sep-19 01:28N 38°56' W 076°24'  
Track history (hours):
 
Tides and Currents Weather Stations Pressure Air Temp Water Temp Dewpoint Dewpoint Depression Visibility Wind Speed Wind Dir Waves Ship Positions

Ultra Panther

Last reported at 2017-Sep-29 01:28 UTC. Time now 2017-Oct-17 22:35 UTC.
Position N 36°52' W 075°52'.
Warning: this ship's position is 18 days out of date.

Length 229 m; draft 13.9 m.

Type: Cargo ship. MMSI: 370235000.

Date/timePositionNaut miles runAvg speedWind from/ knotsBaromVisibWave heightAir tempDewpointWater temp
2017-Sep-29 01:28N 36°52' W 075°52'510.7
2017-Sep-29 00:58N 36°56' W 075°57'510.4
2017-Sep-29 00:30N 36°60' W 076°01'5 9.9
2017-Sep-29 00:00N 37°03' W 076°05'53 8.5
2017-Sep-28 17:43N 37°57' W 076°10'211.0
2017-Sep-28 17:29N 37°59' W 076°11'510.4
2017-Sep-28 17:00N 38°04' W 076°13'510.8
2017-Sep-28 16:30N 38°09' W 076°14'610.7
2017-Sep-28 15:58N 38°15' W 076°16'510.4
2017-Sep-28 15:29N 38°19' W 076°18'510.4
2017-Sep-28 15:00N 38°24' W 076°21'510.4
2017-Sep-28 14:30N 38°29' W 076°23'510.0
2017-Sep-28 14:00N 38°33' W 076°26'5 9.7
2017-Sep-28 13:30N 38°38' W 076°25'5 9.8
2017-Sep-28 13:00N 38°43' W 076°26'510.0
2017-Sep-28 12:30N 38°48' W 076°25'5 9.6
2017-Sep-28 12:00N 38°52' W 076°24'4 7.0
2017-Sep-28 11:30N 38°56' W 076°24'0 0.9
2017-Sep-28 10:58N 38°56' W 076°24'0 0.0
2017-Sep-28 10:28N 38°56' W 076°24'0 0.0
2017-Sep-28 09:58N 38°56' W 076°24'0 0.0
2017-Sep-28 09:28N 38°56' W 076°24'0 0.2
2017-Sep-28 08:58N 38°56' W 076°23'0 0.4
2017-Sep-28 08:28N 38°56' W 076°24'0 0.1
2017-Sep-28 07:58N 38°56' W 076°24'0 0.1
2017-Sep-28 07:28N 38°56' W 076°24'0 0.0
2017-Sep-28 06:58N 38°56' W 076°24'0 0.0
2017-Sep-28 06:28N 38°56' W 076°24'0 0.0
2017-Sep-28 05:58N 38°56' W 076°24'0 0.0
2017-Sep-28 05:28N 38°56' W 076°24'0 0.0
2017-Sep-28 04:58N 38°56' W 076°24'0 0.0
2017-Sep-28 04:28N 38°56' W 076°24'0 0.0
2017-Sep-28 03:58N 38°56' W 076°24'0 0.0
2017-Sep-28 03:28N 38°56' W 076°24'0 0.0
2017-Sep-28 02:58N 38°56' W 076°24'0 0.0
2017-Sep-28 02:28N 38°56' W 076°24'0 0.1
2017-Sep-28 01:58N 38°56' W 076°24'0 0.3
2017-Sep-28 01:28N 38°56' W 076°24'0 0.2
2017-Sep-28 00:58N 38°56' W 076°24'0 0.1
2017-Sep-28 00:28N 38°56' W 076°24'0 0.0
2017-Sep-27 23:58N 38°56' W 076°24'0 0.0
2017-Sep-27 23:28N 38°56' W 076°24'0 0.0
2017-Sep-27 22:58N 38°56' W 076°24'0 0.0
2017-Sep-27 22:28N 38°56' W 076°24'0 0.0
2017-Sep-27 21:58N 38°56' W 076°24'0 0.0
2017-Sep-27 21:28N 38°56' W 076°24'0 0.0
2017-Sep-27 20:58N 38°56' W 076°24'0 0.0
2017-Sep-27 20:28N 38°56' W 076°24'0 0.0
2017-Sep-27 19:58N 38°56' W 076°24'0 0.0
2017-Sep-27 19:28N 38°56' W 076°24'0 0.0
2017-Sep-27 18:58N 38°56' W 076°24'0 0.0
2017-Sep-27 18:28N 38°56' W 076°24'0 0.0
2017-Sep-27 17:58N 38°56' W 076°24'0 0.0
2017-Sep-27 17:28N 38°56' W 076°24'0 0.0
2017-Sep-27 16:58N 38°56' W 076°24'0 0.0
2017-Sep-27 16:28N 38°56' W 076°24'0 0.0
2017-Sep-27 15:58N 38°56' W 076°24'0 0.0
2017-Sep-27 15:28N 38°56' W 076°24'0 0.0
2017-Sep-27 14:58N 38°56' W 076°24'0 0.0
2017-Sep-27 14:28N 38°56' W 076°24'0 0.0
2017-Sep-27 13:58N 38°56' W 076°24'0 0.0
2017-Sep-27 13:28N 38°56' W 076°24'0 0.0
2017-Sep-27 12:58N 38°56' W 076°24'0 0.0
2017-Sep-27 12:28N 38°56' W 076°24'0 0.0
2017-Sep-27 11:58N 38°56' W 076°24'0 0.0
2017-Sep-27 11:28N 38°56' W 076°24'0 0.0
2017-Sep-27 10:58N 38°56' W 076°24'0 0.0
2017-Sep-27 10:28N 38°56' W 076°24'0 0.0
2017-Sep-27 09:58N 38°56' W 076°24'0 0.0
2017-Sep-27 09:28N 38°56' W 076°24'0 0.0
2017-Sep-27 08:58N 38°56' W 076°24'0 0.0
2017-Sep-27 08:28N 38°56' W 076°24'0 0.0
2017-Sep-27 07:58N 38°56' W 076°24'0 0.0
2017-Sep-27 07:28N 38°56' W 076°24'0 0.0
2017-Sep-27 06:58N 38°56' W 076°24'0 0.0
2017-Sep-27 06:28N 38°56' W 076°24'0 0.1
2017-Sep-27 05:58N 38°56' W 076°24'0 0.1
2017-Sep-27 05:28N 38°56' W 076°24'0 0.2
2017-Sep-27 04:58N 38°56' W 076°24'0 0.2
2017-Sep-27 04:28N 38°56' W 076°24'0 0.1
2017-Sep-27 03:55N 38°56' W 076°24'0 0.0
2017-Sep-27 03:28N 38°56' W 076°24'0 0.0
2017-Sep-27 02:58N 38°56' W 076°24'0 0.0
2017-Sep-27 02:28N 38°56' W 076°24'0 0.0
2017-Sep-27 01:58N 38°56' W 076°24'0 0.0
2017-Sep-27 01:28N 38°56' W 076°24'0 0.2
2017-Sep-27 00:58N 38°56' W 076°24'0 0.2
2017-Sep-27 00:28N 38°56' W 076°24'0 0.1
2017-Sep-26 23:58N 38°56' W 076°24'0 0.0
2017-Sep-26 23:28N 38°56' W 076°24'0 0.0
2017-Sep-26 22:58N 38°56' W 076°24'0 0.1
2017-Sep-26 22:28N 38°56' W 076°24'0 0.0
2017-Sep-26 21:58N 38°56' W 076°24'0 0.0
2017-Sep-26 21:28N 38°56' W 076°24'0 0.0
2017-Sep-26 20:58N 38°56' W 076°24'0 0.0
2017-Sep-26 20:28N 38°56' W 076°24'0 0.0
2017-Sep-26 19:58N 38°56' W 076°24'0 0.0
2017-Sep-26 19:28N 38°56' W 076°24'0 0.0
2017-Sep-26 18:58N 38°56' W 076°24'0 0.0
2017-Sep-26 18:28N 38°56' W 076°24'0 0.0
2017-Sep-26 17:58N 38°56' W 076°24'0 0.2
2017-Sep-26 17:28N 38°56' W 076°24'0 0.3
2017-Sep-26 16:58N 38°56' W 076°24'0 0.1
2017-Sep-26 16:28N 38°56' W 076°24'0 0.1
2017-Sep-26 15:58N 38°56' W 076°24'0 0.1
2017-Sep-26 15:28N 38°56' W 076°24'0 0.2
2017-Sep-26 14:58N 38°56' W 076°23'0 0.2
2017-Sep-26 14:30N 38°56' W 076°24'1 1.4
2017-Sep-26 14:00N 38°57' W 076°23'3 6.2
2017-Sep-26 13:30N 38°60' W 076°23'4 7.8
2017-Sep-26 13:00N 39°04' W 076°24'4 8.3
2017-Sep-26 12:30N 39°08' W 076°24'4 8.1
2017-Sep-26 12:01N 39°11' W 076°27'4 7.2
2017-Sep-26 11:30N 39°13' W 076°31'3 6.2
2017-Sep-26 11:00N 39°15' W 076°34'0 0.6
2017-Sep-26 10:30N 39°15' W 076°34'0 0.0
2017-Sep-26 09:58N 39°15' W 076°34'0 0.0
2017-Sep-26 09:28N 39°15' W 076°34'0 0.0
2017-Sep-26 08:58N 39°15' W 076°34'0 0.0
2017-Sep-26 08:28N 39°15' W 076°34'0 0.0
2017-Sep-26 07:58N 39°15' W 076°34'0 0.0
2017-Sep-26 07:28N 39°15' W 076°34'0 0.0
2017-Sep-26 06:58N 39°15' W 076°34'0 0.0
2017-Sep-26 06:28N 39°15' W 076°34'0 0.0
2017-Sep-26 05:58N 39°15' W 076°34'0 0.0
2017-Sep-26 05:28N 39°15' W 076°34'0 0.0
2017-Sep-26 04:58N 39°15' W 076°34'0 0.0
2017-Sep-26 04:28N 39°15' W 076°34'0 0.0
2017-Sep-26 03:58N 39°15' W 076°34'0 0.0
2017-Sep-26 03:28N 39°15' W 076°34'0 0.0
2017-Sep-26 02:58N 39°15' W 076°34'0 0.0
2017-Sep-26 02:28N 39°15' W 076°34'0 0.0
2017-Sep-26 01:58N 39°15' W 076°34'0 0.0
2017-Sep-26 01:28N 39°15' W 076°34'0 0.0
2017-Sep-26 00:58N 39°15' W 076°34'0 0.0
2017-Sep-26 00:28N 39°15' W 076°34'0 0.0
2017-Sep-25 23:58N 39°15' W 076°34'0 0.0
2017-Sep-25 23:28N 39°15' W 076°34'0 0.0
2017-Sep-25 22:58N 39°15' W 076°34'0 0.0
2017-Sep-25 22:28N 39°15' W 076°34'0 0.0
2017-Sep-25 21:58N 39°15' W 076°34'0 0.0
2017-Sep-25 21:28N 39°15' W 076°34'0 0.0
2017-Sep-25 20:58N 39°15' W 076°34'0 0.0
2017-Sep-25 20:28N 39°15' W 076°34'0 0.0
2017-Sep-25 19:58N 39°15' W 076°34'0 0.0
2017-Sep-25 19:28N 39°15' W 076°34'0 0.0
2017-Sep-25 18:58N 39°15' W 076°34'0 0.0
2017-Sep-25 18:28N 39°15' W 076°34'0 0.0
2017-Sep-25 17:58N 39°15' W 076°34'0 0.0
2017-Sep-25 17:28N 39°15' W 076°34'0 0.0
2017-Sep-25 16:58N 39°15' W 076°34'0 0.0
2017-Sep-25 16:28N 39°15' W 076°34'0 0.0
2017-Sep-25 15:58N 39°15' W 076°34'0 0.8
2017-Sep-25 15:31N 39°15' W 076°34'2 3.3
2017-Sep-25 15:00N 39°14' W 076°32'3 6.6
2017-Sep-25 14:30N 39°12' W 076°29'5 9.4
2017-Sep-25 14:00N 39°09' W 076°24'5 9.6
2017-Sep-25 13:31N 39°04' W 076°24'4 8.8
2017-Sep-25 13:00N 38°60' W 076°23'3 6.6
2017-Sep-25 12:30N 38°56' W 076°24'0 0.6
2017-Sep-25 12:00N 38°56' W 076°24'0 0.3
2017-Sep-25 11:30N 38°56' W 076°24'0 0.2
2017-Sep-25 11:00N 38°56' W 076°24'0 0.1
2017-Sep-25 10:30N 38°56' W 076°24'0 0.0
2017-Sep-25 10:00N 38°56' W 076°24'0 0.0
2017-Sep-25 09:30N 38°56' W 076°24'0 0.0
2017-Sep-25 09:00N 38°56' W 076°24'0 0.0
2017-Sep-25 08:30N 38°56' W 076°24'0 0.0
2017-Sep-25 08:00N 38°56' W 076°24'0 0.0
2017-Sep-25 07:30N 38°56' W 076°24'0 0.0
2017-Sep-25 07:00N 38°56' W 076°24'0 0.0
2017-Sep-25 06:30N 38°56' W 076°24'0 0.0
2017-Sep-25 06:00N 38°56' W 076°24'0 0.0
2017-Sep-25 05:30N 38°56' W 076°24'0 0.1
2017-Sep-25 05:00N 38°56' W 076°24'0 0.2
2017-Sep-25 04:30N 38°56' W 076°24'0 0.2
2017-Sep-25 04:00N 38°56' W 076°24'0 0.1
2017-Sep-25 03:30N 38°56' W 076°24'0 0.1
2017-Sep-25 03:00N 38°56' W 076°24'0 0.0
2017-Sep-25 02:30N 38°56' W 076°24'0 0.0
2017-Sep-25 02:00N 38°56' W 076°24'0 0.0
2017-Sep-25 01:30N 38°56' W 076°24'0 0.0
2017-Sep-25 01:00N 38°56' W 076°24'0 0.0
2017-Sep-25 00:30N 38°56' W 076°24'0 0.0
2017-Sep-25 00:00N 38°56' W 076°24'0 0.2
2017-Sep-24 23:30N 38°56' W 076°24'0 0.3
2017-Sep-24 23:00N 38°56' W 076°24'0 0.0
2017-Sep-24 22:30N 38°56' W 076°24'0 0.1
2017-Sep-24 22:00N 38°56' W 076°24'0 0.0
2017-Sep-24 21:30N 38°56' W 076°24'0 0.0
2017-Sep-24 21:00N 38°56' W 076°24'0 0.0
2017-Sep-24 20:30N 38°56' W 076°24'0 0.0
2017-Sep-24 20:00N 38°56' W 076°24'0 0.0
2017-Sep-24 19:30N 38°56' W 076°24'0 0.0
2017-Sep-24 19:00N 38°56' W 076°24'0 0.0
2017-Sep-24 18:30N 38°56' W 076°24'0 0.0
2017-Sep-24 18:00N 38°56' W 076°24'0 0.0
2017-Sep-24 17:30N 38°56' W 076°24'0 0.0
2017-Sep-24 17:00N 38°56' W 076°24'0 0.0
2017-Sep-24 16:30N 38°56' W 076°24'0 0.0
2017-Sep-24 16:00N 38°56' W 076°24'0 0.1
2017-Sep-24 15:30N 38°56' W 076°24'0 0.3
2017-Sep-24 15:00N 38°56' W 076°24'0 0.2
2017-Sep-24 14:30N 38°56' W 076°24'0 0.1
2017-Sep-24 14:00N 38°56' W 076°24'0 0.0
2017-Sep-24 13:30N 38°56' W 076°24'0 0.0
2017-Sep-24 13:00N 38°56' W 076°24'0 0.0
2017-Sep-24 12:30N 38°56' W 076°24'0 0.1
2017-Sep-24 12:00N 38°56' W 076°24'0 0.1
2017-Sep-24 11:30N 38°56' W 076°24'0 0.2
2017-Sep-24 11:00N 38°56' W 076°24'0 0.2
2017-Sep-24 10:30N 38°56' W 076°24'0 0.0
2017-Sep-24 10:00N 38°56' W 076°24'0 0.1
2017-Sep-24 09:30N 38°56' W 076°24'0 0.0
2017-Sep-24 09:00N 38°56' W 076°24'0 0.0
2017-Sep-24 08:30N 38°56' W 076°24'0 0.0
2017-Sep-24 08:00N 38°56' W 076°24'0 0.0
2017-Sep-24 07:30N 38°56' W 076°24'0 0.0
2017-Sep-24 07:00N 38°56' W 076°24'0 0.0
2017-Sep-24 06:30N 38°56' W 076°24'0 0.0
2017-Sep-24 06:00N 38°56' W 076°24'0 0.0
2017-Sep-24 05:30N 38°56' W 076°24'0 0.0
2017-Sep-24 05:00N 38°56' W 076°24'0 0.0
2017-Sep-24 04:30N 38°56' W 076°24'0 0.1
2017-Sep-24 04:00N 38°56' W 076°24'0 0.2
2017-Sep-24 03:30N 38°56' W 076°24'0 0.1
2017-Sep-24 03:00N 38°56' W 076°24'0 0.1
2017-Sep-24 02:30N 38°56' W 076°24'0 0.1
2017-Sep-24 02:00N 38°56' W 076°24'0 0.0
2017-Sep-24 01:30N 38°56' W 076°24'0 0.0
2017-Sep-24 01:00N 38°56' W 076°24'0 0.0
2017-Sep-24 00:30N 38°56' W 076°24'0 0.0
2017-Sep-24 00:00N 38°56' W 076°24'0 0.0
2017-Sep-23 23:30N 38°56' W 076°24'0 0.1
2017-Sep-23 23:00N 38°56' W 076°24'0 0.3
2017-Sep-23 22:30N 38°56' W 076°24'0 0.2
2017-Sep-23 22:00N 38°56' W 076°24'0 0.1
2017-Sep-23 21:30N 38°56' W 076°24'0 0.0
2017-Sep-23 21:00N 38°56' W 076°24'0 0.0
2017-Sep-23 20:30N 38°56' W 076°24'0 0.0
2017-Sep-23 20:00N 38°56' W 076°24'0 0.0
2017-Sep-22 02:00N 38°56' W 076°24'0 0.1
2017-Sep-22 01:30N 38°56' W 076°24'0 0.1
2017-Sep-22 01:00N 38°56' W 076°24'0 0.0
2017-Sep-22 00:30N 38°56' W 076°24'0 0.0
2017-Sep-22 00:00N 38°56' W 076°24'0 0.0
2017-Sep-21 23:30N 38°56' W 076°24'0 0.0
2017-Sep-21 23:00N 38°56' W 076°24'0 0.0
2017-Sep-21 22:30N 38°56' W 076°24'0 0.1
2017-Sep-21 22:00N 38°56' W 076°24'0 0.2
2017-Sep-21 21:27N 38°56' W 076°24'0 0.2
2017-Sep-21 21:00N 38°56' W 076°24'0 0.1
2017-Sep-21 20:30N 38°56' W 076°24'0 0.1
2017-Sep-21 20:00N 38°56' W 076°24'0 0.1
2017-Sep-21 19:30N 38°56' W 076°24'0 0.0
2017-Sep-21 19:00N 38°56' W 076°24'0 0.0
2017-Sep-21 18:30N 38°56' W 076°24'0 0.0
2017-Sep-21 18:00N 38°56' W 076°24'0 0.0
2017-Sep-21 17:30N 38°56' W 076°24'0 0.0
2017-Sep-21 17:00N 38°56' W 076°24'0 0.0
2017-Sep-21 16:30N 38°56' W 076°24'0 0.0
2017-Sep-21 15:57N 38°56' W 076°24'0 0.0
2017-Sep-21 15:30N 38°56' W 076°24'0 0.0
2017-Sep-21 15:00N 38°56' W 076°24'0 0.0
2017-Sep-21 14:30N 38°56' W 076°24'0 0.1
2017-Sep-21 14:00N 38°56' W 076°24'0 0.3
2017-Sep-21 13:30N 38°56' W 076°24'0 0.1
2017-Sep-21 13:00N 38°56' W 076°24'0 0.0
2017-Sep-21 12:30N 38°56' W 076°24'0 0.0
2017-Sep-21 12:00N 38°56' W 076°24'0 0.0
2017-Sep-21 11:30N 38°56' W 076°24'0 0.0
2017-Sep-21 11:00N 38°56' W 076°24'0 0.0
2017-Sep-21 10:30N 38°56' W 076°24'0 0.0
2017-Sep-21 10:00N 38°56' W 076°24'0 0.0
2017-Sep-21 09:30N 38°56' W 076°24'0 0.1
2017-Sep-21 09:00N 38°56' W 076°24'0 0.3
2017-Sep-21 08:30N 38°56' W 076°24'0 0.2
2017-Sep-21 08:00N 38°56' W 076°24'0 0.1
2017-Sep-21 07:30N 38°56' W 076°24'0 0.0
2017-Sep-21 07:00N 38°56' W 076°24'0 0.0
2017-Sep-21 06:30N 38°56' W 076°24'0 0.0
2017-Sep-21 06:00N 38°56' W 076°24'0 0.0
2017-Sep-21 05:30N 38°56' W 076°24'0 0.0
2017-Sep-21 04:59N 38°56' W 076°24'0 0.0
2017-Sep-21 04:30N 38°56' W 076°24'0 0.0
2017-Sep-21 04:00N 38°56' W 076°24'0 0.0
2017-Sep-21 03:30N 38°56' W 076°24'0 0.0
2017-Sep-21 02:59N 38°56' W 076°24'0 0.0
2017-Sep-21 02:30N 38°56' W 076°24'0 0.1
2017-Sep-21 02:00N 38°56' W 076°24'0 0.3
2017-Sep-21 01:30N 38°56' W 076°24'0 0.2
2017-Sep-21 01:00N 38°56' W 076°24'0 0.0
2017-Sep-21 00:30N 38°56' W 076°24'0 0.0
2017-Sep-21 00:00N 38°56' W 076°24'0 0.0
2017-Sep-20 23:30N 38°56' W 076°24'0 0.0
2017-Sep-20 23:00N 38°56' W 076°24'0 0.0
2017-Sep-20 22:30N 38°56' W 076°24'0 0.0
2017-Sep-20 21:59N 38°56' W 076°24'0 0.0
2017-Sep-20 21:29N 38°56' W 076°24'0 0.0
2017-Sep-20 20:59N 38°56' W 076°24'0 0.0
2017-Sep-20 20:29N 38°56' W 076°24'0 0.1
2017-Sep-20 19:59N 38°56' W 076°24'0 0.3
2017-Sep-20 19:29N 38°56' W 076°24'0 0.2
2017-Sep-20 18:59N 38°56' W 076°24'0 0.1
2017-Sep-20 18:29N 38°56' W 076°24'0 0.0
2017-Sep-20 18:00N 38°56' W 076°24'0 0.0
2017-Sep-20 17:29N 38°56' W 076°24'0 0.0
2017-Sep-20 16:59N 38°56' W 076°24'0 0.0
2017-Sep-20 16:29N 38°56' W 076°24'0 0.0
2017-Sep-20 15:59N 38°56' W 076°24'0 0.0
2017-Sep-20 15:29N 38°56' W 076°24'0 0.0
2017-Sep-20 14:59N 38°56' W 076°24'0 0.1
2017-Sep-20 13:59N 38°56' W 076°24'0 0.3
2017-Sep-20 13:29N 38°56' W 076°24'0 0.1
2017-Sep-20 12:59N 38°56' W 076°24'0 0.0
2017-Sep-20 12:29N 38°56' W 076°24'0 0.0
2017-Sep-20 11:59N 38°56' W 076°24'0 0.0
2017-Sep-20 11:29N 38°56' W 076°24'0 0.0
2017-Sep-20 10:59N 38°56' W 076°24'0 0.0
2017-Sep-20 10:29N 38°56' W 076°24'0 0.0
2017-Sep-20 09:59N 38°56' W 076°24'0 0.0
2017-Sep-20 09:29N 38°56' W 076°24'0 0.0
2017-Sep-20 08:59N 38°56' W 076°24'0 0.0
2017-Sep-20 08:29N 38°56' W 076°24'0 0.1
2017-Sep-20 07:59N 38°56' W 076°24'0 0.3
2017-Sep-20 07:29N 38°56' W 076°24'0 0.3
2017-Sep-20 06:59N 38°56' W 076°24'0 0.1
2017-Sep-20 06:30N 38°56' W 076°24'0 0.0
2017-Sep-20 05:59N 38°56' W 076°24'0 0.0
2017-Sep-20 05:30N 38°56' W 076°24'0 0.0
2017-Sep-20 04:59N 38°56' W 076°24'0 0.0
2017-Sep-20 04:29N 38°56' W 076°24'0 0.0
2017-Sep-20 04:00N 38°56' W 076°24'0 0.0
2017-Sep-20 03:29N 38°56' W 076°24'0 0.0
2017-Sep-20 03:00N 38°56' W 076°24'0 0.0
2017-Sep-20 02:29N 38°56' W 076°24'0 0.0
2017-Sep-20 01:59N 38°56' W 076°24'0 0.3
2017-Sep-20 01:30N 38°56' W 076°24'0 0.2
2017-Sep-20 01:00N 38°56' W 076°24'0 0.0
2017-Sep-20 00:30N 38°56' W 076°24'0 0.0
2017-Sep-19 23:58N 38°56' W 076°24'0 0.1
2017-Sep-19 23:28N 38°56' W 076°24'0 0.0
2017-Sep-19 22:58N 38°56' W 076°24'0 0.1
2017-Sep-19 22:28N 38°56' W 076°24'0 0.1
2017-Sep-19 21:58N 38°56' W 076°24'0 0.1
2017-Sep-19 21:28N 38°56' W 076°24'0 0.2
2017-Sep-19 20:58N 38°56' W 076°24'0 0.3
2017-Sep-19 20:28N 38°56' W 076°24'0 0.2
2017-Sep-19 19:58N 38°56' W 076°24'0 0.0
2017-Sep-19 19:28N 38°56' W 076°24'0 0.1
2017-Sep-19 18:58N 38°56' W 076°24'0 0.0
2017-Sep-19 18:28N 38°56' W 076°24'0 0.0
2017-Sep-19 17:58N 38°56' W 076°24'0 0.0
2017-Sep-19 17:28N 38°56' W 076°24'0 0.0
2017-Sep-19 16:58N 38°56' W 076°24'0 0.0
2017-Sep-19 16:28N 38°56' W 076°24'0 0.1
2017-Sep-19 15:58N 38°56' W 076°24'0 0.0
2017-Sep-19 15:28N 38°56' W 076°24'0 0.0
2017-Sep-19 14:58N 38°56' W 076°24'0 0.0
2017-Sep-19 14:28N 38°56' W 076°24'0 0.0
2017-Sep-19 13:58N 38°56' W 076°24'0 0.0
2017-Sep-19 13:28N 38°56' W 076°24'0 0.0
2017-Sep-19 12:58N 38°56' W 076°24'0 0.0
2017-Sep-19 12:28N 38°56' W 076°24'0 0.0
2017-Sep-19 11:58N 38°56' W 076°24'0 0.0
2017-Sep-19 11:28N 38°56' W 076°24'0 0.0
2017-Sep-19 10:58N 38°56' W 076°24'0 0.1
2017-Sep-19 10:28N 38°56' W 076°24'0 0.2
2017-Sep-19 09:58N 38°56' W 076°24'0 0.1
2017-Sep-19 09:28N 38°56' W 076°24'0 0.0
2017-Sep-19 08:58N 38°56' W 076°24'0 0.0
2017-Sep-19 08:28N 38°56' W 076°24'0 0.1
2017-Sep-19 07:58N 38°56' W 076°24'0 0.2
2017-Sep-19 07:28N 38°56' W 076°24'0 0.1
2017-Sep-19 06:58N 38°56' W 076°24'0 0.0
2017-Sep-19 06:28N 38°56' W 076°24'0 0.0
2017-Sep-19 05:58N 38°56' W 076°24'0 0.0
2017-Sep-19 05:28N 38°56' W 076°24'0 0.0
2017-Sep-19 04:58N 38°56' W 076°24'0 0.0
2017-Sep-19 04:28N 38°56' W 076°24'0 0.0
2017-Sep-19 03:58N 38°56' W 076°24'0 0.0
2017-Sep-19 03:28N 38°56' W 076°24'0 0.0
2017-Sep-19 02:58N 38°56' W 076°24'0 0.0
2017-Sep-19 02:28N 38°56' W 076°24'0 0.0
2017-Sep-19 01:58N 38°56' W 076°24'0 0.0
2017-Sep-19 01:28N 38°56' W 076°24'  

Dump ship's entire track history